Helena — SCGL — position and weather

sailwx.info

Track history (hours):
 
Tides and Currents Weather Stations Pressure Air Temp Water Temp Dewpoint Dewpoint Depression Visibility Wind Speed Wind Dir Waves Ship Positions

Helena

Last reported at 2014-Jul-23 00:33 UTC. Time now 2014-Jul-23 16:07 UTC.
Position N 60°15' E 019°02'.

Length 169 m; draft 6.3 m.

Type: Cargo ship. MMSI: 265145000.

Date/timePositionNaut miles runAvg speedWind from/ knotsBaromVisibWave heightAir tempDewpointWater temp
2014-Jul-23 00:33N 60°15' E 019°02'1816.5
2014-Jul-22 23:28N 60°00' E 019°23'1516.7
2014-Jul-22 22:33N 59°49' E 019°43'2116.5
2014-Jul-22 21:19N 59°34' E 020°10'8516.5
2014-Jul-22 16:10N 58°21' E 018°46'1016.7
2014-Jul-22 15:33N 58°12' E 018°36'1716.5
2014-Jul-22 14:34N 57°58' E 018°20'1616.3
2014-Jul-22 13:33N 57°44' E 018°05'1615.9
2014-Jul-22 12:34N 57°30' E 017°50'1616.2
2014-Jul-22 11:34N 57°15' E 017°40'1616.4
2014-Jul-22 10:34N 56°59' E 017°28'1716.7
2014-Jul-22 09:34N 56°44' E 017°17'1716.6
2014-Jul-22 08:33N 56°29' E 017°06'1616.2
2014-Jul-22 07:33N 56°13' E 016°55'1515.2
2014-Jul-22 06:34N 56°01' E 016°38'1616.0
2014-Jul-22 05:34N 55°54' E 016°13'1615.8
2014-Jul-22 04:34N 55°46' E 015°49'1615.7
2014-Jul-22 03:33N 55°38' E 015°24'1615.8
2014-Jul-22 02:33N 55°31' E 015°00'1615.9
2014-Jul-22 01:33N 55°22' E 014°36'1615.8
2014-Jul-22 00:34N 55°10' E 014°20'1515.4
2014-Jul-21 23:33N 54°59' E 013°60'1615.9
2014-Jul-21 22:33N 54°54' E 013°34'1615.8
2014-Jul-21 21:34N 54°49' E 013°08'1615.6
2014-Jul-21 20:34N 54°44' E 012°42'415.4
2014-Jul-21 20:18N 54°41' E 012°37'1115.2
2014-Jul-21 19:34N 54°33' E 012°23'1413.9
2014-Jul-21 18:33N 54°24' E 012°05'1413.9
2014-Jul-21 17:33N 54°18' E 011°43'1414.4
2014-Jul-21 16:33N 54°10' E 011°23'1413.4
2014-Jul-21 15:32N 54°03' E 011°03'9 9.4
2014-Jul-21 14:33N 53°56' E 010°52'4 0.2
2014-Jul-20 15:26N 53°54' E 010°47'0 0.0
2014-Jul-20 11:29N 53°54' E 010°47'0 0.0
2014-Jul-20 10:29N 53°54' E 010°47'1 1.0
2014-Jul-20 09:25N 53°54' E 010°49'6 6.8
2014-Jul-20 08:33N 53°59' E 010°55'1312.9
2014-Jul-20 07:33N 54°08' E 011°10'1515.2
2014-Jul-20 06:34N 54°16' E 011°32'1616.0
2014-Jul-20 05:34N 54°24' E 011°56'1313.5
2014-Jul-20 04:34N 54°33' E 012°13'1514.8
2014-Jul-20 03:34N 54°43' E 012°31'1312.9
2014-Jul-20 02:34N 54°52' E 012°49'3 3.3
2014-Jul-20 01:33N 54°53' E 012°54'2 2.0
2014-Jul-20 00:33N 54°52' E 012°56'1110.9
2014-Jul-19 23:33N 54°54' E 013°15'1211.6
2014-Jul-19 22:33N 54°58' E 013°34'1414.0
2014-Jul-19 21:34N 55°03' E 013°57'1413.6
2014-Jul-19 20:34N 55°12' E 014°14'1514.7
2014-Jul-19 19:33N 55°23' E 014°32'1514.7
2014-Jul-19 18:33N 55°31' E 014°53'1514.8
2014-Jul-19 17:33N 55°39' E 015°15'1514.9
2014-Jul-19 16:34N 55°47' E 015°38'1515.0
2014-Jul-19 15:34N 55°54' E 016°01'1515.1
2014-Jul-19 14:34N 56°02' E 016°24'1514.6
2014-Jul-19 13:33N 56°11' E 016°45'1514.8
2014-Jul-19 12:34N 56°25' E 016°52'1515.0
2014-Jul-19 11:33N 56°40' E 016°59'1515.3
2014-Jul-19 10:34N 56°54' E 017°07'1515.3
2014-Jul-19 09:33N 57°09' E 017°15'1515.5
2014-Jul-19 08:33N 57°23' E 017°28'1515.4
2014-Jul-19 07:34N 57°36' E 017°44'1515.2
2014-Jul-19 06:33N 57°49' E 017°59'  
2014-Jul-15 11:06N 57°39' E 018°00'917.1
2014-Jul-15 10:33N 57°31' E 017°51'1717.0
2014-Jul-15 09:33N 57°15' E 017°39'1716.9
2014-Jul-15 08:33N 56°60' E 017°28'1717.0
2014-Jul-15 07:33N 56°44' E 017°17'2317.0
2014-Jul-15 06:12N 56°22' E 017°01'2615.9
2014-Jul-15 04:33N 56°00' E 016°36'1615.9
2014-Jul-15 03:34N 55°53' E 016°11'1616.0
2014-Jul-15 02:33N 55°45' E 015°46'1615.9
2014-Jul-15 01:33N 55°37' E 015°21'1616.2
2014-Jul-15 00:33N 55°30' E 014°56'1616.0
2014-Jul-14 23:33N 55°20' E 014°33'1616.0
2014-Jul-14 22:33N 55°08' E 014°16'1615.6
2014-Jul-14 21:34N 54°58' E 013°55'1616.4
2014-Jul-14 20:33N 54°53' E 013°28'1816.5
2014-Jul-14 19:27N 54°47' E 012°58'1415.8
2014-Jul-14 18:33N 54°40' E 012°36'1615.8
2014-Jul-14 17:33N 54°30' E 012°16'1515.3
2014-Jul-14 16:33N 54°22' E 011°54'1616.3
2014-Jul-14 15:34N 54°13' E 011°30'1716.5
2014-Jul-14 14:33N 54°04' E 011°06'10 0.5
2014-Jul-13 17:06N 53°57' E 010°53'1811.6
2014-Jul-13 15:33N 54°10' E 011°15'1313.4
2014-Jul-13 14:33N 54°17' E 011°34'1313.2
2014-Jul-13 13:33N 54°24' E 011°54'1212.2
2014-Jul-13 12:33N 54°30' E 012°12'1313.1
2014-Jul-13 11:33N 54°40' E 012°25'1313.4
2014-Jul-13 10:33N 54°48' E 012°44'1313.3
2014-Jul-13 09:33N 54°53' E 013°06'1313.5
2014-Jul-13 08:33N 54°57' E 013°28'2211.2
2014-Jul-13 06:33N 55°05' E 014°05'1411.8
2014-Jul-13 05:24N 55°15' E 014°20'1012.1
2014-Jul-13 04:33N 55°23' E 014°32'1211.8
2014-Jul-13 03:33N 55°30' E 014°49'1612.2
2014-Jul-13 02:14N 55°38' E 015°14'  
Track history (hours):
 
Tides and Currents Weather Stations Pressure Air Temp Water Temp Dewpoint Dewpoint Depression Visibility Wind Speed Wind Dir Waves Ship Positions

Helena

Last reported at 2014-Jul-23 00:33 UTC. Time now 2014-Jul-23 16:07 UTC.
Position N 60°15' E 019°02'.

Length 169 m; draft 6.3 m.

Type: Cargo ship. MMSI: 265145000.

Date/timePositionNaut miles runAvg speedWind from/ knotsBaromVisibWave heightAir tempDewpointWater temp
2014-Jul-23 00:33N 60°15' E 019°02'1816.5
2014-Jul-22 23:28N 60°00' E 019°23'1516.7
2014-Jul-22 22:33N 59°49' E 019°43'2116.5
2014-Jul-22 21:19N 59°34' E 020°10'8516.5
2014-Jul-22 16:10N 58°21' E 018°46'1016.7
2014-Jul-22 15:33N 58°12' E 018°36'1716.5
2014-Jul-22 14:34N 57°58' E 018°20'1616.3
2014-Jul-22 13:33N 57°44' E 018°05'1615.9
2014-Jul-22 12:34N 57°30' E 017°50'1616.2
2014-Jul-22 11:34N 57°15' E 017°40'1616.4
2014-Jul-22 10:34N 56°59' E 017°28'1716.7
2014-Jul-22 09:34N 56°44' E 017°17'1716.6
2014-Jul-22 08:33N 56°29' E 017°06'1616.2
2014-Jul-22 07:33N 56°13' E 016°55'1515.2
2014-Jul-22 06:34N 56°01' E 016°38'1616.0
2014-Jul-22 05:34N 55°54' E 016°13'1615.8
2014-Jul-22 04:34N 55°46' E 015°49'1615.7
2014-Jul-22 03:33N 55°38' E 015°24'1615.8
2014-Jul-22 02:33N 55°31' E 015°00'1615.9
2014-Jul-22 01:33N 55°22' E 014°36'1615.8
2014-Jul-22 00:34N 55°10' E 014°20'1515.4
2014-Jul-21 23:33N 54°59' E 013°60'1615.9
2014-Jul-21 22:33N 54°54' E 013°34'1615.8
2014-Jul-21 21:34N 54°49' E 013°08'1615.6
2014-Jul-21 20:34N 54°44' E 012°42'415.4
2014-Jul-21 20:18N 54°41' E 012°37'1115.2
2014-Jul-21 19:34N 54°33' E 012°23'1413.9
2014-Jul-21 18:33N 54°24' E 012°05'1413.9
2014-Jul-21 17:33N 54°18' E 011°43'1414.4
2014-Jul-21 16:33N 54°10' E 011°23'1413.4
2014-Jul-21 15:32N 54°03' E 011°03'9 9.4
2014-Jul-21 14:33N 53°56' E 010°52'4 0.2
2014-Jul-20 15:26N 53°54' E 010°47'0 0.0
2014-Jul-20 11:29N 53°54' E 010°47'0 0.0
2014-Jul-20 10:29N 53°54' E 010°47'1 1.0
2014-Jul-20 09:25N 53°54' E 010°49'6 6.8
2014-Jul-20 08:33N 53°59' E 010°55'1312.9
2014-Jul-20 07:33N 54°08' E 011°10'1515.2
2014-Jul-20 06:34N 54°16' E 011°32'1616.0
2014-Jul-20 05:34N 54°24' E 011°56'1313.5
2014-Jul-20 04:34N 54°33' E 012°13'1514.8
2014-Jul-20 03:34N 54°43' E 012°31'1312.9
2014-Jul-20 02:34N 54°52' E 012°49'3 3.3
2014-Jul-20 01:33N 54°53' E 012°54'2 2.0
2014-Jul-20 00:33N 54°52' E 012°56'1110.9
2014-Jul-19 23:33N 54°54' E 013°15'1211.6
2014-Jul-19 22:33N 54°58' E 013°34'1414.0
2014-Jul-19 21:34N 55°03' E 013°57'1413.6
2014-Jul-19 20:34N 55°12' E 014°14'1514.7
2014-Jul-19 19:33N 55°23' E 014°32'1514.7
2014-Jul-19 18:33N 55°31' E 014°53'1514.8
2014-Jul-19 17:33N 55°39' E 015°15'1514.9
2014-Jul-19 16:34N 55°47' E 015°38'1515.0
2014-Jul-19 15:34N 55°54' E 016°01'1515.1
2014-Jul-19 14:34N 56°02' E 016°24'1514.6
2014-Jul-19 13:33N 56°11' E 016°45'1514.8
2014-Jul-19 12:34N 56°25' E 016°52'1515.0
2014-Jul-19 11:33N 56°40' E 016°59'1515.3
2014-Jul-19 10:34N 56°54' E 017°07'1515.3
2014-Jul-19 09:33N 57°09' E 017°15'1515.5
2014-Jul-19 08:33N 57°23' E 017°28'1515.4
2014-Jul-19 07:34N 57°36' E 017°44'1515.2
2014-Jul-19 06:33N 57°49' E 017°59'  
2014-Jul-15 11:06N 57°39' E 018°00'917.1
2014-Jul-15 10:33N 57°31' E 017°51'1717.0
2014-Jul-15 09:33N 57°15' E 017°39'1716.9
2014-Jul-15 08:33N 56°60' E 017°28'1717.0
2014-Jul-15 07:33N 56°44' E 017°17'2317.0
2014-Jul-15 06:12N 56°22' E 017°01'2615.9
2014-Jul-15 04:33N 56°00' E 016°36'1615.9
2014-Jul-15 03:34N 55°53' E 016°11'1616.0
2014-Jul-15 02:33N 55°45' E 015°46'1615.9
2014-Jul-15 01:33N 55°37' E 015°21'1616.2
2014-Jul-15 00:33N 55°30' E 014°56'1616.0
2014-Jul-14 23:33N 55°20' E 014°33'1616.0
2014-Jul-14 22:33N 55°08' E 014°16'1615.6
2014-Jul-14 21:34N 54°58' E 013°55'1616.4
2014-Jul-14 20:33N 54°53' E 013°28'1816.5
2014-Jul-14 19:27N 54°47' E 012°58'1415.8
2014-Jul-14 18:33N 54°40' E 012°36'1615.8
2014-Jul-14 17:33N 54°30' E 012°16'1515.3
2014-Jul-14 16:33N 54°22' E 011°54'1616.3
2014-Jul-14 15:34N 54°13' E 011°30'1716.5
2014-Jul-14 14:33N 54°04' E 011°06'10 0.5
2014-Jul-13 17:06N 53°57' E 010°53'1811.6
2014-Jul-13 15:33N 54°10' E 011°15'1313.4
2014-Jul-13 14:33N 54°17' E 011°34'1313.2
2014-Jul-13 13:33N 54°24' E 011°54'1212.2
2014-Jul-13 12:33N 54°30' E 012°12'1313.1
2014-Jul-13 11:33N 54°40' E 012°25'1313.4
2014-Jul-13 10:33N 54°48' E 012°44'1313.3
2014-Jul-13 09:33N 54°53' E 013°06'1313.5
2014-Jul-13 08:33N 54°57' E 013°28'2211.2
2014-Jul-13 06:33N 55°05' E 014°05'1411.8
2014-Jul-13 05:24N 55°15' E 014°20'1012.1
2014-Jul-13 04:33N 55°23' E 014°32'1211.8
2014-Jul-13 03:33N 55°30' E 014°49'1612.2
2014-Jul-13 02:14N 55°38' E 015°14'  

Dump ship's entire track history